createdAt,value
2023-01-06T00:01:41.699Z,1.20
2023-01-06T00:04:11.252Z,1.00
2023-01-06T00:06:40.772Z,1.30
2023-01-06T00:09:11.380Z,1.40
2023-01-06T00:11:40.846Z,1.60
2023-01-06T00:14:10.302Z,1.80
2023-01-06T00:16:39.799Z,1.50
2023-01-06T00:19:10.740Z,1.20
2023-01-06T00:21:41.837Z,1.20
2023-01-06T00:24:11.919Z,1.07
2023-01-06T00:26:41.355Z,1.00
2023-01-06T00:29:12.509Z,1.27
2023-01-06T00:31:41.975Z,1.13
2023-01-06T00:34:12.572Z,1.00
2023-01-06T00:36:42.103Z,1.03
2023-01-06T00:39:14.213Z,1.40
2023-01-06T00:42:01.835Z,0.80
2023-01-06T00:44:32.472Z,1.10
2023-01-06T00:47:02.939Z,0.90
2023-01-06T00:49:32.844Z,1.10
2023-01-06T00:52:02.305Z,1.10
2023-01-06T00:54:31.828Z,0.90
2023-01-06T00:57:01.267Z,0.80
2023-01-06T00:59:30.699Z,1.07
2023-01-06T01:02:00.740Z,1.13
2023-01-06T01:04:30.634Z,1.10
2023-01-06T01:07:01.225Z,0.87
2023-01-06T01:09:33.404Z,1.30
2023-01-06T01:12:13.895Z,0.97
2023-01-06T01:14:55.155Z,0.90
2023-01-06T01:17:31.632Z,0.93
2023-01-06T01:20:01.395Z,0.70
2023-01-06T01:22:32.366Z,0.67
2023-01-06T01:25:01.829Z,1.20
2023-01-06T01:27:31.326Z,1.03
2023-01-06T01:30:00.759Z,0.50
2023-01-06T01:32:30.219Z,0.70
2023-01-06T01:34:59.653Z,0.30
2023-01-06T01:37:30.788Z,0.50
2023-01-06T01:40:00.239Z,0.50
2023-01-06T01:42:29.738Z,0.50
2023-01-06T01:45:09.429Z,0.70
2023-01-06T01:47:49.260Z,0.30
2023-01-06T01:50:41.690Z,0.53
2023-01-06T01:53:15.762Z,0.50
2023-01-06T01:55:46.039Z,0.50
2023-01-06T01:58:20.166Z,0.40
2023-01-06T02:00:49.671Z,0.40
2023-01-06T02:03:22.235Z,0.50
2023-01-06T02:05:56.199Z,0.40
2023-01-06T02:08:54.746Z,0.30
2023-01-06T02:11:26.872Z,0.37
2023-01-06T02:14:00.985Z,0.60
2023-01-06T02:16:44.045Z,0.50
2023-01-06T02:19:25.750Z,0.80
2023-01-06T02:22:08.418Z,0.50
2023-01-06T02:24:51.308Z,0.60
2023-01-06T02:27:44.803Z,0.50
2023-01-06T02:30:38.454Z,0.50
2023-01-06T02:33:36.123Z,0.60
2023-01-06T02:36:12.916Z,0.60
2023-01-06T02:38:58.476Z,0.70
2023-01-06T02:41:41.534Z,0.93
2023-01-06T02:44:30.380Z,0.50
2023-01-06T02:47:19.443Z,0.60
2023-01-06T02:50:10.260Z,0.87
2023-01-06T02:53:14.119Z,0.63
2023-01-06T02:55:57.306Z,0.50
2023-01-06T02:58:48.852Z,0.30
2023-01-06T03:01:40.955Z,0.62
2023-01-06T03:04:17.913Z,0.50
2023-01-06T03:06:51.483Z,0.60
2023-01-06T03:09:25.514Z,0.80
2023-01-06T03:11:54.990Z,0.50
2023-01-06T03:14:38.121Z,0.87
2023-01-06T03:17:07.696Z,0.50
2023-01-06T03:19:37.270Z,0.63
2023-01-06T03:22:09.612Z,0.67
2023-01-06T03:24:40.152Z,0.50
2023-01-06T03:27:10.838Z,0.50
2023-01-06T03:29:40.708Z,0.50
2023-01-06T03:32:37.394Z,0.57
2023-01-06T03:35:20.223Z,0.80
2023-01-06T03:38:17.938Z,0.70
2023-01-06T03:41:08.267Z,0.60
2023-01-06T03:44:05.539Z,0.70
2023-01-06T03:46:45.556Z,1.10
2023-01-06T03:49:33.888Z,1.00
2023-01-06T03:52:07.931Z,0.70
2023-01-06T03:54:50.213Z,1.00
2023-01-06T03:57:26.715Z,0.70
2023-01-06T04:00:13.187Z,1.00
2023-01-06T04:02:43.272Z,0.83
2023-01-06T04:05:19.852Z,0.83
2023-01-06T04:07:50.321Z,0.70
2023-01-06T04:10:22.274Z,0.77
2023-01-06T04:12:52.839Z,0.70
2023-01-06T04:15:27.241Z,1.00
2023-01-06T04:17:57.483Z,1.00
2023-01-06T04:20:31.044Z,1.17
2023-01-06T04:23:00.630Z,1.10
2023-01-06T04:25:30.077Z,1.30
2023-01-06T04:27:59.539Z,1.10
2023-01-06T04:30:28.984Z,0.87
2023-01-06T04:32:58.437Z,1.20
2023-01-06T04:35:27.876Z,1.20
2023-01-06T04:37:57.334Z,1.00
2023-01-06T04:40:26.784Z,0.90
2023-01-06T04:43:05.327Z,0.70
2023-01-06T04:45:36.427Z,0.97
2023-01-06T04:48:06.070Z,0.90
2023-01-06T04:50:35.934Z,1.17
2023-01-06T04:53:06.772Z,0.83
2023-01-06T04:55:41.222Z,0.93
2023-01-06T04:58:11.030Z,0.70
2023-01-06T05:00:40.572Z,0.63
2023-01-06T05:03:10.072Z,0.63
2023-01-06T05:05:40.598Z,0.70
2023-01-06T05:08:10.036Z,0.70
2023-01-06T05:10:39.487Z,0.50
2023-01-06T05:13:08.931Z,0.80
2023-01-06T05:15:40.528Z,0.90
2023-01-06T05:18:10.245Z,1.10
2023-01-06T05:20:39.688Z,0.70
2023-01-06T05:23:09.161Z,0.60
2023-01-06T05:25:38.593Z,1.10
2023-01-06T05:28:08.041Z,1.00
2023-01-06T05:30:38.009Z,1.00
2023-01-06T05:33:07.640Z,0.90
2023-01-06T05:35:37.169Z,1.00
2023-01-06T05:38:06.617Z,0.90
2023-01-06T05:40:37.218Z,1.07
2023-01-06T05:43:06.658Z,1.00
2023-01-06T05:45:37.769Z,1.17
2023-01-06T05:48:07.419Z,1.00
2023-01-06T05:50:36.862Z,0.87
2023-01-06T05:53:06.571Z,0.60
2023-01-06T05:55:36.099Z,1.00
2023-01-06T05:58:05.560Z,1.57
2023-01-06T06:00:35.004Z,1.23
2023-01-06T06:03:04.450Z,1.20
2023-01-06T06:05:33.903Z,1.57
2023-01-06T06:08:03.352Z,1.70
2023-01-06T06:10:32.809Z,1.40
2023-01-06T06:13:02.258Z,1.70
2023-01-06T06:15:31.720Z,1.10
2023-01-06T06:18:03.717Z,1.10
2023-01-06T06:20:33.155Z,1.13
2023-01-06T06:23:02.687Z,1.13
2023-01-06T06:25:32.279Z,0.93
2023-01-06T06:28:02.194Z,0.80
2023-01-06T06:30:31.640Z,1.10
2023-01-06T06:33:01.283Z,0.90
2023-01-06T06:35:30.831Z,1.07
2023-01-06T06:38:00.280Z,1.17
2023-01-06T06:40:29.733Z,1.15
2023-01-06T06:42:59.173Z,1.10
2023-01-06T06:45:28.651Z,1.50
2023-01-06T06:47:58.061Z,1.30
2023-01-06T06:50:27.523Z,1.73
2023-01-06T06:52:57.421Z,1.20
2023-01-06T06:55:26.890Z,1.27
2023-01-06T06:57:56.332Z,1.17
2023-01-06T07:00:26.112Z,1.80
2023-01-06T07:02:55.538Z,0.80
2023-01-06T07:05:25.745Z,1.07
2023-01-06T07:07:55.284Z,1.30
2023-01-06T07:10:24.762Z,1.10
2023-01-06T07:12:54.193Z,1.27
2023-01-06T07:15:23.658Z,1.10
2023-01-06T07:17:53.103Z,0.83
2023-01-06T07:20:22.632Z,1.47
2023-01-06T07:22:52.092Z,1.20
2023-01-06T07:25:21.626Z,0.77
2023-01-06T07:27:56.811Z,1.20
2023-01-06T07:30:28.398Z,1.30
2023-01-06T07:32:57.820Z,1.00
2023-01-06T07:35:27.550Z,1.07
2023-01-06T07:37:58.763Z,1.53
2023-01-06T07:40:28.274Z,1.37
2023-01-06T07:42:57.758Z,1.60
2023-01-06T07:45:27.221Z,1.27
2023-01-06T07:47:58.197Z,1.27
2023-01-06T07:50:28.918Z,1.20
2023-01-06T07:53:03.973Z,1.10
2023-01-06T07:55:33.444Z,1.00
2023-01-06T07:58:08.273Z,0.93
2023-01-06T08:00:38.753Z,1.37
2023-01-06T08:03:11.528Z,1.10
2023-01-06T08:05:42.728Z,1.00
2023-01-06T08:08:13.595Z,1.20
2023-01-06T08:10:44.903Z,1.27
2023-01-06T08:13:14.301Z,1.40
2023-01-06T08:15:44.257Z,1.00
2023-01-06T08:18:13.737Z,0.90
2023-01-06T08:20:43.194Z,1.40
2023-01-06T08:23:12.639Z,1.57
2023-01-06T08:25:42.483Z,1.10
2023-01-06T08:28:11.912Z,1.10
2023-01-06T08:30:43.155Z,1.30
2023-01-06T08:33:13.259Z,1.77
2023-01-06T08:35:44.102Z,1.70
2023-01-06T08:38:13.546Z,1.37
2023-01-06T08:40:43.268Z,1.90
2023-01-06T08:43:12.722Z,1.17
2023-01-06T08:45:42.179Z,1.60
2023-01-06T08:48:11.623Z,1.10
2023-01-06T08:50:42.287Z,2.00
2023-01-06T08:53:13.747Z,2.00
2023-01-06T08:55:44.212Z,1.40
2023-01-06T08:58:13.656Z,1.63
2023-01-06T09:00:44.260Z,1.63
2023-01-06T09:03:13.731Z,1.30
2023-01-06T09:05:43.225Z,1.10
2023-01-06T09:08:12.683Z,1.60
2023-01-06T09:10:42.125Z,1.00
2023-01-06T09:13:11.587Z,0.70
2023-01-06T09:15:47.000Z,1.60
2023-01-06T09:18:16.581Z,1.90
2023-01-06T09:20:47.915Z,1.70
2023-01-06T09:23:17.700Z,1.83
2023-01-06T09:25:47.087Z,1.23
2023-01-06T09:28:16.711Z,1.27
2023-01-06T09:30:48.699Z,1.23
2023-01-06T09:33:19.333Z,1.30
2023-01-06T09:35:48.911Z,2.00
2023-01-06T09:38:19.688Z,1.80
2023-01-06T09:41:17.832Z,1.03
2023-01-06T09:43:57.583Z,1.00
2023-01-06T09:46:34.925Z,1.43
2023-01-06T09:49:11.890Z,1.57
2023-01-06T09:51:41.940Z,2.17
2023-01-06T09:54:27.958Z,1.70
2023-01-06T09:57:04.741Z,1.47
2023-01-06T09:59:53.558Z,1.70
2023-01-06T10:02:42.233Z,1.10
2023-01-06T10:05:24.892Z,1.47
2023-01-06T10:08:23.082Z,1.40
2023-01-06T10:11:12.270Z,1.70
2023-01-06T10:14:04.553Z,1.20
2023-01-06T10:17:09.135Z,1.13
2023-01-06T10:20:05.448Z,1.40
2023-01-06T10:22:55.780Z,1.10
2023-01-06T10:25:41.029Z,1.33
2023-01-06T10:28:23.983Z,1.30
2023-01-06T10:30:56.244Z,1.10
2023-01-06T10:33:35.746Z,0.90
2023-01-06T10:36:07.288Z,0.93
2023-01-06T10:38:46.933Z,1.20
2023-01-06T10:41:41.775Z,1.10
2023-01-06T10:44:14.186Z,0.77
2023-01-06T10:46:45.466Z,0.90
2023-01-06T10:49:22.364Z,0.97
2023-01-06T10:52:03.391Z,0.80
2023-01-06T10:54:35.860Z,0.90
2023-01-06T10:57:09.885Z,0.87
2023-01-06T11:00:12.087Z,0.73
2023-01-06T11:03:09.230Z,0.80
2023-01-06T11:05:32.069Z,0.80
2023-01-06T11:08:06.399Z,1.10
2023-01-06T11:10:56.332Z,1.10
2023-01-06T11:13:34.416Z,0.77
2023-01-06T11:16:22.873Z,0.80
2023-01-06T11:18:59.780Z,0.60
2023-01-06T11:21:47.368Z,0.80
2023-01-06T11:24:26.410Z,0.70
2023-01-06T11:27:05.763Z,0.90
2023-01-06T11:29:37.066Z,0.90
2023-01-06T11:32:23.379Z,0.70
2023-01-06T11:35:05.551Z,0.90
2023-01-06T11:37:44.306Z,0.77
2023-01-06T11:40:35.282Z,0.73
2023-01-06T11:43:15.102Z,1.00
2023-01-06T11:45:49.500Z,1.40
2023-01-06T11:48:24.047Z,0.80
2023-01-06T11:51:00.894Z,0.60
2023-01-06T11:53:31.425Z,0.77
2023-01-06T11:56:11.386Z,0.70
2023-01-06T11:58:57.257Z,0.67
2023-01-06T12:01:52.448Z,0.67
2023-01-06T12:04:45.000Z,0.73
2023-01-06T12:07:36.773Z,0.50
2023-01-06T12:10:16.719Z,0.60
2023-01-06T12:12:46.381Z,0.60
2023-01-06T12:15:19.067Z,0.60
2023-01-06T12:18:01.595Z,0.90
2023-01-06T12:20:35.786Z,0.60
2023-01-06T12:23:18.731Z,0.50
2023-01-06T12:25:51.372Z,0.50
2023-01-06T12:28:34.633Z,0.70
2023-01-06T12:31:34.155Z,0.70
2023-01-06T12:34:25.883Z,0.60
2023-01-06T12:37:28.685Z,0.50
2023-01-06T12:40:17.981Z,0.83
2023-01-06T12:43:01.051Z,1.17
2023-01-06T12:45:57.609Z,1.50
2023-01-06T12:48:49.193Z,2.27
2023-01-06T12:51:38.444Z,3.10
2023-01-06T12:54:15.001Z,2.50
2023-01-06T12:57:22.344Z,2.20
2023-01-06T13:00:17.683Z,1.30
2023-01-06T13:03:17.451Z,1.50
2023-01-06T13:06:08.970Z,1.50
2023-01-06T13:09:17.800Z,0.90
2023-01-06T13:12:03.460Z,0.90
2023-01-06T13:15:04.678Z,1.20
2023-01-06T13:18:04.660Z,0.87
2023-01-06T13:20:50.210Z,0.53
2023-01-06T13:23:30.171Z,0.60
2023-01-06T13:26:16.139Z,0.60
2023-01-06T13:29:18.891Z,0.70
2023-01-06T13:32:32.252Z,0.40
2023-01-06T13:35:23.103Z,0.60
2023-01-06T13:38:22.869Z,0.27
2023-01-06T13:40:53.782Z,0.40
2023-01-06T13:43:28.418Z,0.40
2023-01-06T13:46:05.522Z,0.50
2023-01-06T13:48:42.296Z,0.60
2023-01-06T13:51:17.241Z,0.40
2023-01-06T13:53:49.804Z,0.20
2023-01-06T13:56:24.154Z,0.60
2023-01-06T13:59:14.000Z,0.33
2023-01-06T14:01:43.863Z,0.30
2023-01-06T14:04:39.802Z,0.30
2023-01-06T14:07:10.234Z,0.80
2023-01-06T14:09:49.982Z,2.23
2023-01-06T14:12:24.009Z,1.73
2023-01-06T14:15:06.676Z,1.80
2023-01-06T14:17:46.547Z,1.80
2023-01-06T14:20:35.701Z,1.40
2023-01-06T14:23:16.257Z,1.30
2023-01-06T14:25:50.603Z,1.17
2023-01-06T14:28:29.926Z,0.80
2023-01-06T14:31:37.733Z,0.87
2023-01-06T14:34:10.717Z,0.60
2023-01-06T14:36:40.969Z,0.50
2023-01-06T14:39:15.040Z,0.40
2023-01-06T14:42:16.005Z,0.40
2023-01-06T14:44:52.884Z,0.30
2023-01-06T14:47:45.971Z,0.27
2023-01-06T14:50:45.479Z,0.30
2023-01-06T14:53:10.025Z,0.20
2023-01-06T14:55:44.016Z,0.20
2023-01-06T14:58:37.724Z,1.13
2023-01-06T15:01:10.355Z,2.40
2023-01-06T15:03:41.479Z,2.67
2023-01-06T15:06:20.997Z,2.27
2023-01-06T15:08:50.689Z,1.80
2023-01-06T15:11:34.144Z,1.70
2023-01-06T15:14:03.610Z,1.40
2023-01-06T15:16:42.427Z,1.20
2023-01-06T15:19:16.049Z,1.10
2023-01-06T15:21:49.723Z,0.73
2023-01-06T15:24:26.425Z,0.80
2023-01-06T15:27:00.463Z,0.50
2023-01-06T15:29:29.938Z,0.70
2023-01-06T15:32:00.002Z,0.40
2023-01-06T15:34:42.835Z,0.50
2023-01-06T15:37:19.364Z,0.30
2023-01-06T15:39:49.644Z,0.30
2023-01-06T15:42:41.110Z,0.30
2023-01-06T15:45:23.841Z,0.40
2023-01-06T15:47:54.424Z,0.20
2023-01-06T15:50:29.626Z,0.20
2023-01-06T15:53:05.892Z,0.13
2023-01-06T15:55:43.250Z,0.30
2023-01-06T15:58:30.505Z,0.27
2023-01-06T16:01:04.770Z,0.20
2023-01-06T16:03:37.631Z,0.30
2023-01-06T16:06:12.412Z,0.30
2023-01-06T16:08:44.187Z,0.33
2023-01-06T16:11:48.699Z,0.20
2023-01-06T16:14:36.891Z,0.23
2023-01-06T16:17:20.029Z,0.30
2023-01-06T16:19:55.870Z,0.50
2023-01-06T16:22:42.422Z,0.20
2023-01-06T16:25:36.168Z,0.40
2023-01-06T16:28:09.014Z,0.30
2023-01-06T16:30:39.458Z,0.40
2023-01-06T16:33:42.413Z,0.30
2023-01-06T16:36:17.999Z,0.30
2023-01-06T16:38:48.204Z,0.20
2023-01-06T16:41:21.600Z,0.30
2023-01-06T16:43:55.371Z,0.20
2023-01-06T16:46:27.959Z,0.23
2023-01-06T16:48:59.811Z,0.40
2023-01-06T16:51:31.101Z,0.30
2023-01-06T16:54:00.940Z,0.30
2023-01-06T16:56:31.551Z,0.20
2023-01-06T16:59:02.343Z,0.40
2023-01-06T17:01:32.160Z,0.30
2023-01-06T17:04:03.685Z,0.40
2023-01-06T17:06:33.913Z,0.50
2023-01-06T17:09:06.224Z,0.60
2023-01-06T17:11:38.365Z,0.30
2023-01-06T17:14:21.280Z,0.40
2023-01-06T17:16:51.977Z,0.40
2023-01-06T17:19:27.045Z,0.30
2023-01-06T17:22:15.624Z,0.30
2023-01-06T17:24:45.116Z,0.27
2023-01-06T17:27:28.199Z,0.40
2023-01-06T17:30:02.921Z,0.20
2023-01-06T17:32:41.586Z,0.30
2023-01-06T17:35:29.991Z,0.30
2023-01-06T17:38:13.080Z,0.20
2023-01-06T17:40:42.525Z,0.33
2023-01-06T17:43:37.863Z,0.30
2023-01-06T17:46:26.948Z,0.30
2023-01-06T17:49:21.992Z,0.30
2023-01-06T17:51:52.263Z,0.30
2023-01-06T17:54:42.008Z,0.30
2023-01-06T17:57:20.617Z,0.57
2023-01-06T17:59:55.187Z,0.50
2023-01-06T18:02:49.186Z,0.83
2023-01-06T18:05:30.795Z,0.70
2023-01-06T18:08:16.208Z,0.70
2023-01-06T18:10:54.229Z,0.63
2023-01-06T18:13:31.268Z,0.60
2023-01-06T18:16:02.720Z,0.47
2023-01-06T18:18:41.415Z,0.47
2023-01-06T18:21:21.951Z,0.83
2023-01-06T18:23:55.620Z,0.80
2023-01-06T18:26:40.627Z,1.00
2023-01-06T18:29:20.758Z,0.90
2023-01-06T18:31:54.517Z,1.00
2023-01-06T18:34:38.033Z,1.03
2023-01-06T18:37:09.292Z,0.70
2023-01-06T18:39:43.778Z,0.80
2023-01-06T18:42:38.958Z,0.90
2023-01-06T18:45:21.853Z,0.70
2023-01-06T18:47:58.641Z,0.63
2023-01-06T18:50:43.539Z,0.60
2023-01-06T18:53:20.762Z,0.70
2023-01-06T18:55:59.973Z,0.80
2023-01-06T18:58:50.347Z,0.67
2023-01-06T19:01:26.968Z,0.70
2023-01-06T19:04:29.328Z,0.70
2023-01-06T19:07:21.586Z,0.63
2023-01-06T19:09:52.287Z,0.50
2023-01-06T19:12:36.261Z,0.70
2023-01-06T19:15:15.742Z,0.60
2023-01-06T19:17:48.292Z,0.70
2023-01-06T19:20:29.001Z,0.40
2023-01-06T19:22:59.287Z,0.70
2023-01-06T19:25:45.075Z,0.50
2023-01-06T19:28:24.894Z,0.53
2023-01-06T19:31:02.193Z,0.50
2023-01-06T19:33:44.693Z,0.50
2023-01-06T19:37:01.172Z,0.60
2023-01-06T19:39:48.810Z,0.40
2023-01-06T19:42:27.465Z,0.43
2023-01-06T19:45:04.041Z,0.60
2023-01-06T19:47:39.125Z,0.70
2023-01-06T19:50:25.419Z,0.50
2023-01-06T19:53:00.896Z,0.73
2023-01-06T19:55:33.550Z,0.60
2023-01-06T19:58:19.871Z,0.50
2023-01-06T20:00:54.251Z,0.30
2023-01-06T20:03:37.056Z,0.70
2023-01-06T20:06:07.546Z,0.70
2023-01-06T20:08:37.164Z,0.50
2023-01-06T20:11:06.740Z,0.53
2023-01-06T20:13:36.568Z,0.80
2023-01-06T20:16:07.316Z,0.60
2023-01-06T20:18:36.991Z,0.70
2023-01-06T20:21:06.863Z,0.50
2023-01-06T20:23:36.374Z,0.57
2023-01-06T20:26:05.909Z,0.50
2023-01-06T20:28:35.368Z,0.50
2023-01-06T20:31:04.822Z,0.57
2023-01-06T20:33:34.264Z,0.53
2023-01-06T20:36:03.737Z,0.80
2023-01-06T20:38:33.245Z,0.43
2023-01-06T20:41:02.721Z,0.60
2023-01-06T20:43:32.156Z,0.50
2023-01-06T20:46:01.741Z,0.50
2023-01-06T20:48:31.337Z,0.63
2023-01-06T20:51:00.794Z,0.57
2023-01-06T20:53:30.308Z,0.73
2023-01-06T20:55:59.953Z,0.60
2023-01-06T20:58:29.408Z,0.60
2023-01-06T21:00:58.913Z,0.80
2023-01-06T21:03:28.334Z,0.83
2023-01-06T21:05:57.834Z,0.80
2023-01-06T21:08:27.283Z,1.10
2023-01-06T21:10:56.732Z,0.80
2023-01-06T21:13:26.185Z,0.70
2023-01-06T21:15:55.651Z,0.50
2023-01-06T21:18:25.094Z,0.90
2023-01-06T21:20:54.564Z,0.70
2023-01-06T21:23:24.030Z,0.40
2023-01-06T21:25:53.473Z,0.60
2023-01-06T21:28:22.915Z,0.70
2023-01-06T21:30:52.468Z,0.70
2023-01-06T21:33:22.041Z,0.80
2023-01-06T21:35:52.325Z,0.70
2023-01-06T21:38:21.772Z,0.60
2023-01-06T21:40:51.402Z,0.70
2023-01-06T21:43:20.873Z,0.80
2023-01-06T21:45:50.400Z,0.77
2023-01-06T21:48:21.493Z,0.70
2023-01-06T21:50:50.939Z,0.60
2023-01-06T21:53:21.362Z,1.10
2023-01-06T21:55:51.214Z,0.70
2023-01-06T21:58:21.545Z,0.60
2023-01-06T22:00:51.042Z,0.70
2023-01-06T22:03:20.515Z,0.90
2023-01-06T22:05:49.968Z,0.70
2023-01-06T22:08:20.751Z,0.90
2023-01-06T22:10:50.357Z,0.80
2023-01-06T22:13:22.787Z,0.60
2023-01-06T22:15:52.975Z,0.73
2023-01-06T22:18:22.583Z,0.83
2023-01-06T22:20:52.733Z,0.63
2023-01-06T22:23:23.799Z,0.60
2023-01-06T22:25:53.231Z,0.73
2023-01-06T22:28:23.386Z,0.70
2023-01-06T22:30:54.458Z,0.80
2023-01-06T22:33:24.105Z,0.70
2023-01-06T22:35:58.197Z,0.70
2023-01-06T22:38:27.847Z,0.63
2023-01-06T22:40:57.286Z,0.60
2023-01-06T22:43:26.766Z,1.00
2023-01-06T22:45:57.941Z,0.60
2023-01-06T22:48:27.571Z,0.70
2023-01-06T22:51:03.024Z,0.70
2023-01-06T22:53:34.507Z,0.90
2023-01-06T22:56:07.526Z,0.80
2023-01-06T22:58:39.964Z,0.70
2023-01-06T23:01:10.761Z,0.60
2023-01-06T23:03:40.262Z,0.70
2023-01-06T23:06:13.999Z,0.63
2023-01-06T23:08:59.245Z,0.60
2023-01-06T23:11:20.146Z,1.00
2023-01-06T23:13:50.163Z,0.70
2023-01-06T23:16:22.307Z,0.87
2023-01-06T23:18:52.198Z,0.90
2023-01-06T23:21:24.912Z,0.53
2023-01-06T23:23:55.016Z,0.80
2023-01-06T23:26:28.988Z,0.70
2023-01-06T23:28:59.487Z,0.70
2023-01-06T23:31:33.861Z,0.67
2023-01-06T23:34:10.013Z,0.90
2023-01-06T23:36:40.135Z,0.63
2023-01-06T23:39:13.116Z,0.80
2023-01-06T23:41:43.085Z,0.80
2023-01-06T23:44:20.524Z,0.50
2023-01-06T23:46:50.276Z,0.70
2023-01-06T23:49:20.459Z,0.40
2023-01-06T23:51:49.878Z,0.70
2023-01-06T23:54:19.335Z,0.83
2023-01-06T23:56:48.774Z,0.50
2023-01-06T23:59:18.249Z,0.87
